Vreme - Novo mesto - 190m - DAVIS Vantage Pro2
Weather data: current sobota, 15.06.2019 19:50
Date Time Temp. O. Hum. O. Baro. Rain Wind Direction Direction Wind gust
15.06.2019 19:50 29.5 C 61 % 1011.4 hPa 0.0 mm 0.0 km/h N-NE 20 1.6 km/h
15.06.2019 18:50 30.2 C 55 % 1011.7 hPa 0.0 mm 0.0 km/h E 90 3.2 km/h
15.06.2019 17:50 30.1 C 59 % 1012.2 hPa 0.0 mm 0.0 km/h S 180 3.2 km/h
15.06.2019 16:50 31.4 C 48 % 1012.9 hPa 0.0 mm 0.0 km/h E-SE 110 6.4 km/h
15.06.2019 15:50 30.9 C 50 % 1013.2 hPa 0.0 mm 1.6 km/h S 180 6.4 km/h
15.06.2019 14:50 28.8 C 59 % 1013.3 hPa 0.0 mm 0.0 km/h N 360 8.0 km/h
15.06.2019 13:50 29.6 C 54 % 1013.8 hPa 0.0 mm 1.6 km/h E-NE 65 6.4 km/h
15.06.2019 12:50 28.7 C 56 % 1014.8 hPa 0.0 mm 1.6 km/h SW 225 8.0 km/h
15.06.2019 11:50 28.1 C 56 % 1014.8 hPa 0.0 mm 1.6 km/h S-SW 200 6.4 km/h
15.06.2019 10:50 26.2 C 66 % 1015.1 hPa 0.0 mm 3.2 km/h S 180 8.0 km/h
15.06.2019 09:50 23.9 C 71 % 1015.7 hPa 0.0 mm 6.4 km/h SW 225 11.3 km/h
15.06.2019 08:50 21.6 C 79 % 1015.7 hPa 0.0 mm 3.2 km/h SW 225 8.0 km/h
15.06.2019 07:50 18.5 C 89 % 1015.6 hPa 0.0 mm 0.0 km/h SW 225 4.8 km/h
15.06.2019 06:50 17.6 C 91 % 1015.7 hPa 0.0 mm 3.2 km/h SW 225 6.4 km/h
15.06.2019 05:50 17.1 C 91 % 1015.5 hPa 0.0 mm 0.0 km/h W 270 1.6 km/h
15.06.2019 04:50 17.4 C 90 % 1015.4 hPa 0.0 mm 0.0 km/h S-SW 200 1.6 km/h
15.06.2019 03:50 18.3 C 87 % 1015.5 hPa 0.0 mm 0.0 km/h NW 315 3.2 km/h
15.06.2019 02:50 18.1 C 89 % 1016.0 hPa 0.0 mm 1.6 km/h SW 225 6.4 km/h
15.06.2019 01:50 19.2 C 86 % 1016.1 hPa 0.0 mm 0.0 km/h N 0 0.0 km/h
15.06.2019 00:50 19.6 C 84 % 1016.4 hPa 0.0 mm 0.0 km/h N 0 0.0 km/h
14.06.2019 23:50 20.2 C 83 % 1016.5 hPa 0.0 mm 0.0 km/h N 0 0.0 km/h
14.06.2019 22:50 21.8 C 77 % 1016.8 hPa 0.0 mm 0.0 km/h E-NE 65 3.2 km/h
14.06.2019 21:50 23.1 C 73 % 1016.7 hPa 0.0 mm 0.0 km/h E-NE 65 4.8 km/h
14.06.2019 20:50 26.9 C 56 % 1016.4 hPa 0.0 mm 0.0 km/h W 270 4.8 km/h
14.06.2019 20:00 29.2 C 48 % 1016.5 hPa 0.0 mm 1.6 km/h SW 225 9.7 km/h
_ Min-Time 05:40 20:00 19:40 - 20:20 - - 22:00
Minimum _ 17.1 C 48 % 1011.4 hPa - 0.0 km/h - - 0.0 km/h
_ Max-Time 16:50 06:20 22:00 20:00 14:10 - - 14:20
Maximum _ 31.4 C 92 % 1017.0 hPa 0.0 mm 8.0 km/h
E-NE
- - 16.1 km/h
N-NE
Average _ 24.0 C 71 % 1015.0 hPa #0.0 mm 1.3 km/h SW - 5.1 km/h